Time;durP1;ratioP1;P1;durP2;ratioP2;P2;SDS_P1;SDS_P2;PMS_P1;PMS_P2;Temp;Humidity;BMP_temperature;BMP_pressure;BME280_temperature;BME280_humidity;BME280_pressure;Samples;Min_cycle;Max_cycle;Signal;HPM_P1;HPM_P2
2023/08/21 00:00:59;;;;;;;0.00;0.00;;;12.40;99.90;;;;;;5000751;28;20512;-74
2023/08/21 00:03:25;;;;;;;0.10;0.10;;;12.50;99.90;;;;;;5005430;28;20151;-74
2023/08/21 00:05:51;;;;;;;0.00;0.00;;;12.40;99.90;;;;;;5005698;28;20053;-73
2023/08/21 00:08:16;;;;;;;1.45;0.28;;;12.40;99.90;;;;;;5005928;28;20046;-74
2023/08/21 00:10:42;;;;;;;0.10;0.10;;;12.40;99.90;;;;;;5005467;28;20046;-74
2023/08/21 00:13:08;;;;;;;0.00;0.00;;;12.30;99.90;;;;;;5005847;28;20447;-74
2023/08/21 00:15:34;;;;;;;0.28;0.08;;;12.30;99.90;;;;;;5005567;28;20476;-74
2023/08/21 00:18:00;;;;;;;0.05;0.05;;;12.20;1.00;;;;;;5005416;28;20095;-74
2023/08/21 00:20:26;;;;;;;0.00;0.00;;;13.40;1.00;;;;;;5001342;28;20053;-73
2023/08/21 00:22:52;;;;;;;0.00;0.00;;;12.10;99.90;;;;;;5003476;28;20046;-73
2023/08/21 00:25:18;;;;;;;0.00;0.00;;;12.10;99.90;;;;;;5005477;28;20049;-74
2023/08/21 00:27:43;;;;;;;0.00;0.00;;;12.10;99.90;;;;;;5004976;28;20045;-74
2023/08/21 00:30:10;;;;;;;0.20;0.20;;;12.10;99.90;;;;;;5004223;28;20420;-74
2023/08/21 00:32:35;;;;;;;0.10;0.10;;;12.10;99.90;;;;;;4996337;28;20639;-74
2023/08/21 00:35:01;;;;;;;0.00;0.00;;;12.10;99.90;;;;;;5005819;28;20054;-74
2023/08/21 00:37:27;;;;;;;0.03;0.03;;;12.10;99.90;;;;;;5004943;28;20041;-74
2023/08/21 00:39:52;;;;;;;0.00;0.00;;;12.10;99.90;;;;;;5001308;28;20476;-74
2023/08/21 00:42:18;;;;;;;0.00;0.00;;;12.10;99.90;;;;;;4996303;28;20413;-73
2023/08/21 00:44:43;;;;;;;0.03;0.03;;;12.10;1.00;;;;;;5005599;28;20404;-74
2023/08/21 00:47:09;;;;;;;0.00;0.00;;;12.10;1.00;;;;;;5005529;28;20463;-74
2023/08/21 00:49:35;;;;;;;0.10;0.10;;;12.10;1.00;;;;;;5002377;28;20053;-74
2023/08/21 00:52:01;;;;;;;0.10;0.10;;;12.10;1.00;;;;;;5005838;28;20091;-73
2023/08/21 00:54:27;;;;;;;0.00;0.00;;;12.10;1.00;;;;;;5005567;28;20401;-74
2023/08/21 00:56:53;;;;;;;0.10;0.00;;;12.10;1.00;;;;;;5005701;28;20073;-73
2023/08/21 00:59:22;;;;;;;0.00;0.00;;;12.00;1.00;;;;;;5000628;28;20578;-73
2023/08/21 01:01:48;;;;;;;0.28;0.08;;;12.00;1.00;;;;;;4996674;28;20069;-73
2023/08/21 01:04:13;;;;;;;0.00;0.00;;;11.90;1.00;;;;;;5004578;28;20081;-74
2023/08/21 01:06:39;;;;;;;0.00;0.00;;;11.80;1.00;;;;;;5005157;28;20057;-74
2023/08/21 01:09:18;;;;;;;0.00;0.00;;;11.70;1.00;;;;;;5003880;28;20539;-74
2023/08/21 01:12:07;;;;;;;0.10;0.10;;;11.60;1.00;;;;;;4996409;28;20053;-74
2023/08/21 01:14:56;;;;;;;0.08;0.08;;;11.60;1.00;;;;;;5005068;28;20049;-74
2023/08/21 01:17:24;;;;;;;0.00;0.00;;;11.70;1.00;;;;;;4988801;28;20061;-73
2023/08/21 01:19:50;;;;;;;0.00;0.00;;;11.80;1.00;;;;;;4998204;28;20233;-74
2023/08/21 01:22:16;;;;;;;0.08;0.08;;;11.70;1.00;;;;;;5004880;28;20042;-73
2023/08/21 01:24:42;;;;;;;0.00;0.00;;;11.70;1.00;;;;;;5004873;28;20046;-74
2023/08/21 01:27:09;;;;;;;0.08;0.00;;;11.70;1.00;;;;;;5004468;28;20067;-74
2023/08/21 01:29:35;;;;;;;0.00;0.00;;;11.70;1.00;;;;;;5003077;28;20042;-73
2023/08/21 01:32:08;;;;;;;1.77;0.20;;;11.60;1.00;;;;;;5002074;28;20037;-74
2023/08/21 01:34:35;;;;;;;0.00;0.00;;;11.50;1.00;;;;;;5004470;28;20518;-74
2023/08/21 01:37:01;;;;;;;0.00;0.00;;;11.40;1.00;;;;;;5002429;28;20117;-74
2023/08/21 01:39:28;;;;;;;0.00;0.00;;;11.50;1.00;;;;;;5002233;28;20038;-74
2023/08/21 01:41:53;;;;;;;0.00;0.00;;;11.50;14.30;;;;;;4999334;28;20436;-74
2023/08/21 01:44:19;;;;;;;0.00;0.00;;;11.50;21.90;;;;;;5003808;28;20042;-73
2023/08/21 01:46:45;;;;;;;2.10;0.32;;;11.50;21.90;;;;;;5003646;28;20046;-73
2023/08/21 01:49:10;;;;;;;0.00;0.00;;;11.40;31.20;;;;;;5004363;28;20045;-74
2023/08/21 01:51:36;;;;;;;0.00;0.00;;;11.30;35.80;;;;;;5003963;28;20076;-73
2023/08/21 01:54:02;;;;;;;0.35;0.25;;;11.20;22.10;;;;;;5004244;28;20397;-74
2023/08/21 01:56:27;;;;;;;0.00;0.00;;;11.30;28.40;;;;;;5004110;28;20062;-73
2023/08/21 01:58:53;;;;;;;0.10;0.10;;;11.30;35.10;;;;;;5004076;28;20061;-73
2023/08/21 02:01:19;;;;;;;0.00;0.00;;;11.30;57.90;;;;;;5003100;28;20054;-74
2023/08/21 02:03:45;;;;;;;0.00;0.00;;;11.30;56.70;;;;;;5003563;28;20087;-73
2023/08/21 02:06:11;;;;;;;0.00;0.00;;;11.30;73.80;;;;;;5003496;28;20057;-74
2023/08/21 02:08:37;;;;;;;0.00;0.00;;;11.20;72.70;;;;;;5002911;28;20042;-73
2023/08/21 02:11:02;;;;;;;0.63;0.45;;;11.20;90.50;;;;;;5001959;28;20049;-73
2023/08/21 02:13:28;;;;;;;0.17;0.10;;;11.20;87.90;;;;;;5003456;28;20419;-73
2023/08/21 02:15:54;;;;;;;0.00;0.00;;;11.10;74.40;;;;;;5002616;28;20112;-73
2023/08/21 02:18:20;;;;;;;0.00;0.00;;;11.10;65.60;;;;;;5003333;28;20045;-73
2023/08/21 02:20:48;;;;;;;0.28;0.20;;;11.10;68.40;;;;;;5000133;28;20054;-73
2023/08/21 02:23:13;;;;;;;0.00;0.00;;;11.10;68.70;;;;;;4999393;28;20496;-73
2023/08/21 02:25:39;;;;;;;0.10;0.08;;;11.10;90.30;;;;;;5003188;28;20074;-73
2023/08/21 02:28:05;;;;;;;0.00;0.00;;;11.10;99.40;;;;;;5003249;28;20046;-73
2023/08/21 02:30:30;;;;;;;0.00;0.00;;;11.10;99.90;;;;;;5003043;28;20040;-74
2023/08/21 02:32:56;;;;;;;0.10;0.10;;;11.00;99.90;;;;;;5003168;28;20041;-73
2023/08/21 02:35:21;;;;;;;0.00;0.00;;;11.00;99.90;;;;;;5002807;28;20042;-73
2023/08/21 02:37:47;;;;;;;0.00;0.00;;;11.00;99.90;;;;;;5002704;28;20041;-74
2023/08/21 02:40:13;;;;;;;0.10;0.10;;;11.00;99.90;;;;;;5002524;28;20389;-73
2023/08/21 02:42:39;;;;;;;0.00;0.00;;;11.10;99.90;;;;;;5002976;28;20053;-73
2023/08/21 02:45:08;;;;;;;0.77;0.08;;;11.10;99.90;;;;;;5002972;28;20042;-73
2023/08/21 02:47:41;;;;;;;0.00;0.00;;;11.10;99.90;;;;;;5002528;28;20053;-73
2023/08/21 02:50:08;;;;;;;0.00;0.00;;;11.10;99.90;;;;;;4996750;28;20049;-74
2023/08/21 02:52:34;;;;;;;0.00;0.00;;;11.10;99.90;;;;;;5002379;28;20232;-73
2023/08/21 02:55:00;;;;;;;0.00;0.00;;;11.00;99.90;;;;;;5002819;28;20046;-74
2023/08/21 02:57:26;;;;;;;0.10;0.00;;;11.20;99.90;;;;;;5002778;28;20393;-74
2023/08/21 02:59:52;;;;;;;0.00;0.00;;;11.00;99.90;;;;;;5002446;28;20128;-73
2023/08/21 03:02:18;;;;;;;0.00;0.00;;;10.90;99.90;;;;;;5002882;28;20191;-72
2023/08/21 03:04:44;;;;;;;0.00;0.00;;;10.90;99.90;;;;;;5002485;28;20285;-73
2023/08/21 03:07:10;;;;;;;0.00;0.00;;;11.00;99.90;;;;;;5002854;28;20140;-73
2023/08/21 03:09:39;;;;;;;1.45;0.43;;;11.00;99.90;;;;;;5002593;28;20133;-73
2023/08/21 03:12:06;;;;;;;0.00;0.00;;;10.90;99.90;;;;;;5002425;28;20045;-73
2023/08/21 03:14:31;;;;;;;1.13;1.00;;;11.00;99.90;;;;;;5002756;28;20074;-74
2023/08/21 03:16:57;;;;;;;0.00;0.00;;;10.90;99.90;;;;;;5002377;28;20496;-73
2023/08/21 03:19:23;;;;;;;0.00;0.00;;;10.80;99.90;;;;;;4995809;28;20069;-73
2023/08/21 03:21:49;;;;;;;0.00;0.00;;;10.80;99.90;;;;;;5002366;28;20085;-73
2023/08/21 03:24:14;;;;;;;0.00;0.00;;;10.70;99.90;;;;;;5002750;28;20049;-73
2023/08/21 03:26:40;;;;;;;0.00;0.00;;;10.60;99.90;;;;;;5002527;28;20045;-73
2023/08/21 03:29:06;;;;;;;0.00;0.00;;;10.60;99.90;;;;;;5005669;28;20042;-73
2023/08/21 03:31:31;;;;;;;0.00;0.00;;;10.60;99.90;;;;;;5006093;28;20042;-73
2023/08/21 03:33:57;;;;;;;0.00;0.00;;;10.50;99.90;;;;;;5006280;28;20046;-73
2023/08/21 03:36:30;;;;;;;0.00;0.00;;;10.60;99.90;;;;;;5006164;28;20415;-73
2023/08/21 03:38:57;;;;;;;0.00;0.00;;;10.40;99.90;;;;;;5006106;28;20124;-73
2023/08/21 03:41:23;;;;;;;0.00;0.00;;;10.30;99.90;;;;;;5005904;28;20054;-72
2023/08/21 03:43:48;;;;;;;0.00;0.00;;;10.20;99.90;;;;;;5006420;28;20041;-73
2023/08/21 03:46:14;;;;;;;0.00;0.00;;;10.20;99.90;;;;;;5006171;28;20508;-73
2023/08/21 03:48:39;;;;;;;0.00;0.00;;;10.20;99.90;;;;;;5004519;28;20045;-73
2023/08/21 03:51:05;;;;;;;0.10;0.10;;;10.20;99.90;;;;;;5006276;28;20122;-74
2023/08/21 03:53:31;;;;;;;0.00;0.00;;;10.30;99.90;;;;;;5006147;28;20049;-73
2023/08/21 03:55:59;;;;;;;0.00;0.00;;;10.40;99.90;;;;;;5006235;28;20580;-73
2023/08/21 03:58:27;;;;;;;0.08;0.08;;;10.40;99.90;;;;;;5005311;28;20120;-73
2023/08/21 04:00:53;;;;;;;0.00;0.00;;;10.40;99.90;;;;;;5005310;28;20092;-74
2023/08/21 04:03:20;;;;;;;0.10;0.10;;;10.40;99.90;;;;;;5005932;28;20049;-73
2023/08/21 04:05:46;;;;;;;0.00;0.00;;;10.50;99.90;;;;;;5005727;28;20129;-73
2023/08/21 04:08:11;;;;;;;0.00;0.00;;;10.50;99.90;;;;;;5004293;28;20496;-73
2023/08/21 04:10:38;;;;;;;0.00;0.00;;;10.50;99.90;;;;;;4994071;28;20394;-73
2023/08/21 04:13:04;;;;;;;0.00;0.00;;;10.60;99.90;;;;;;5000913;28;20056;-73
2023/08/21 04:15:30;;;;;;;0.00;0.00;;;10.60;99.90;;;;;;5004624;28;20045;-72
2023/08/21 04:17:56;;;;;;;0.00;0.00;;;10.60;99.90;;;;;;5001824;28;20033;-73
2023/08/21 04:20:22;;;;;;;0.00;0.00;;;10.60;99.90;;;;;;4997801;28;20061;-73
2023/08/21 04:22:49;;;;;;;0.00;0.00;;;10.50;99.90;;;;;;4999847;28;20046;-73
2023/08/21 04:25:14;;;;;;;0.00;0.00;;;10.50;99.90;;;;;;4998060;28;20144;-73
2023/08/21 04:27:40;;;;;;;0.70;0.50;;;10.50;99.90;;;;;;4997368;28;20423;-72
2023/08/21 04:30:06;;;;;;;0.00;0.00;;;10.50;99.90;;;;;;4998652;28;20034;-72
2023/08/21 04:32:32;;;;;;;0.00;0.00;;;10.60;99.90;;;;;;4998412;28;20093;-71
2023/08/21 04:34:58;;;;;;;0.03;0.03;;;10.70;99.90;;;;;;5000799;28;20174;-72
2023/08/21 04:37:23;;;;;;;0.00;0.00;;;10.70;99.90;;;;;;4999478;28;20089;-71
2023/08/21 04:39:53;;;;;;;0.00;0.00;;;10.70;99.90;;;;;;5001231;28;20108;-72
2023/08/21 04:42:19;;;;;;;0.00;0.00;;;10.70;99.90;;;;;;5004625;28;20046;-72
2023/08/21 04:44:44;;;;;;;0.00;0.00;;;10.70;99.90;;;;;;5004542;28;20104;-72
2023/08/21 04:47:19;;;;;;;0.00;0.00;;;10.80;99.90;;;;;;5001933;28;20099;-72
2023/08/21 04:49:45;;;;;;;0.00;0.00;;;10.80;99.90;;;;;;4996330;28;20053;-72
2023/08/21 04:52:10;;;;;;;0.00;0.00;;;10.90;99.90;;;;;;4998513;28;20555;-73
2023/08/21 04:54:36;;;;;;;0.00;0.00;;;10.90;99.90;;;;;;5002118;28;20448;-73
2023/08/21 04:57:03;;;;;;;0.43;0.43;;;10.90;99.90;;;;;;4997149;28;20034;-73
2023/08/21 04:59:28;;;;;;;0.00;0.00;;;11.00;99.90;;;;;;4997118;28;20054;-73
2023/08/21 05:01:54;;;;;;;0.00;0.00;;;11.00;99.90;;;;;;4996022;28;20514;-73
2023/08/21 05:04:19;;;;;;;0.00;0.00;;;11.10;99.90;;;;;;4994784;28;20631;-73
2023/08/21 05:06:45;;;;;;;0.13;0.13;;;11.10;99.90;;;;;;4996367;28;20044;-73
2023/08/21 05:09:11;;;;;;;0.00;0.00;;;11.10;99.90;;;;;;4996424;28;20584;-73
2023/08/21 05:11:36;;;;;;;0.95;0.60;;;11.20;99.90;;;;;;4994589;28;20038;-73
2023/08/21 05:14:02;;;;;;;0.98;0.43;;;11.20;99.90;;;;;;4995487;28;20116;-73
2023/08/21 05:16:28;;;;;;;0.10;0.10;;;11.20;99.90;;;;;;4995593;28;20236;-73
2023/08/21 05:18:54;;;;;;;8.43;0.15;;;11.30;99.90;;;;;;4993345;28;20598;-73
2023/08/21 05:21:19;;;;;;;0.00;0.00;;;11.40;99.90;;;;;;4994960;28;20356;-73
2023/08/21 05:23:45;;;;;;;0.00;0.00;;;11.40;99.90;;;;;;4992466;28;20065;-73
2023/08/21 05:26:11;;;;;;;0.70;0.45;;;11.50;99.90;;;;;;5001075;28;20053;-72
2023/08/21 05:28:36;;;;;;;0.00;0.00;;;11.50;99.90;;;;;;4997150;28;20042;-73
2023/08/21 05:31:02;;;;;;;0.22;0.20;;;11.70;99.90;;;;;;5002231;28;20034;-73
2023/08/21 05:33:28;;;;;;;0.00;0.00;;;11.70;99.90;;;;;;5002078;28;20034;-73
2023/08/21 05:35:56;;;;;;;0.00;0.00;;;11.80;99.90;;;;;;5002018;28;20066;-73
2023/08/21 05:38:21;;;;;;;0.10;0.10;;;11.90;99.90;;;;;;5001728;28;20061;-73
2023/08/21 05:40:48;;;;;;;0.00;0.00;;;11.90;99.90;;;;;;5001813;28;20038;-73
2023/08/21 05:43:16;;;;;;;0.10;0.10;;;12.00;99.90;;;;;;5000329;28;20409;-73
2023/08/21 05:45:41;;;;;;;0.00;0.00;;;12.20;99.90;;;;;;5001808;28;20053;-73
2023/08/21 05:48:07;;;;;;;0.30;0.30;;;12.30;99.90;;;;;;5001520;28;20385;-73
2023/08/21 05:50:33;;;;;;;0.00;0.00;;;12.40;99.90;;;;;;5000831;28;20188;-73
2023/08/21 05:53:01;;;;;;;0.00;0.00;;;12.50;99.90;;;;;;5001290;28;20038;-73
2023/08/21 05:55:27;;;;;;;0.65;0.55;;;12.70;99.90;;;;;;5001566;28;20054;-73
2023/08/21 05:57:52;;;;;;;0.00;0.00;;;12.80;99.90;;;;;;5001302;28;20038;-73
2023/08/21 06:00:19;;;;;;;0.00;0.00;;;12.90;99.90;;;;;;5001816;28;20120;-73
2023/08/21 06:02:44;;;;;;;1.85;0.20;;;13.10;99.90;;;;;;5003045;28;20583;-73
2023/08/21 06:05:10;;;;;;;0.15;0.15;;;13.30;99.90;;;;;;5003479;28;20088;-73
2023/08/21 06:07:36;;;;;;;1.55;0.43;;;13.50;99.90;;;;;;5002895;28;20132;-73
2023/08/21 06:10:01;;;;;;;0.00;0.00;;;13.70;99.90;;;;;;5002934;28;20046;-74
2023/08/21 06:12:34;;;;;;;0.20;0.10;;;13.80;99.90;;;;;;5108456;27;20392;-72
2023/08/21 06:15:00;;;;;;;0.00;0.00;;;14.00;99.90;;;;;;5108325;28;20101;-72
2023/08/21 06:17:28;;;;;;;0.00;0.00;;;14.50;99.90;;;;;;5107978;27;20048;-72
2023/08/21 06:19:53;;;;;;;0.10;0.10;;;15.50;99.90;;;;;;5109537;27;20051;-72
2023/08/21 06:22:19;;;;;;;2.38;0.88;;;16.50;99.90;;;;;;5111453;27;20068;-72
2023/08/21 06:24:44;;;;;;;0.00;0.00;;;17.40;99.90;;;;;;5111266;27;20039;-72
2023/08/21 06:27:10;;;;;;;0.70;0.35;;;18.20;1.00;;;;;;5108330;27;20047;-72
2023/08/21 06:29:37;;;;;;;0.35;0.35;;;18.90;99.90;;;;;;5107964;28;20040;-72
2023/08/21 06:32:03;;;;;;;0.00;0.00;;;19.40;99.90;;;;;;5108625;28;20347;-72
2023/08/21 06:34:29;;;;;;;0.00;0.00;;;19.90;1.00;;;;;;5106122;27;20448;-72
2023/08/21 06:36:54;;;;;;;0.00;0.00;;;20.40;99.90;;;;;;5110703;27;20116;-72
2023/08/21 06:39:20;;;;;;;0.00;0.00;;;20.90;1.00;;;;;;5108249;27;20069;-72
2023/08/21 06:41:46;;;;;;;0.00;0.00;;;21.50;66.80;;;;;;5107415;28;20097;-72
2023/08/21 06:44:11;;;;;;;4.78;0.63;;;21.90;99.90;;;;;;5108404;28;20043;-72
2023/08/21 06:46:37;;;;;;;0.00;0.00;;;22.10;1.00;;;;;;5110958;27;20039;-73
2023/08/21 06:49:03;;;;;;;0.17;0.17;;;22.40;99.90;;;;;;5099730;27;20106;-73
2023/08/21 06:51:29;;;;;;;0.03;0.03;;;22.80;1.00;;;;;;5095550;28;20043;-72
2023/08/21 06:53:54;;;;;;;0.00;0.00;;;23.20;99.90;;;;;;5092165;28;20066;-72
2023/08/21 06:56:20;;;;;;;0.10;0.10;;;23.40;99.90;;;;;;5092908;28;20061;-72
2023/08/21 06:58:45;;;;;;;0.00;0.00;;;23.90;95.70;;;;;;5095705;28;20035;-73
2023/08/21 07:01:11;;;;;;;0.00;0.00;;;24.40;1.00;;;;;;5095483;28;20046;-73
2023/08/21 07:03:37;;;;;;;0.35;0.35;;;24.80;99.90;;;;;;5108225;28;20149;-73
2023/08/21 07:06:03;;;;;;;0.03;0.03;;;25.20;99.90;;;;;;5112080;28;20055;-73
2023/08/21 07:08:29;;;;;;;0.00;0.00;;;25.70;99.90;;;;;;5102075;27;20039;-73
2023/08/21 07:10:55;;;;;;;0.10;0.10;;;26.10;99.90;;;;;;5109536;28;20059;-73
2023/08/21 07:13:21;;;;;;;0.30;0.20;;;26.50;99.90;;;;;;5110277;27;20047;-72
2023/08/21 07:15:47;;;;;;;0.15;0.08;;;26.90;99.90;;;;;;5109206;27;20043;-72
2023/08/21 07:18:13;;;;;;;0.40;0.10;;;27.20;99.90;;;;;;5107009;27;20150;-73
2023/08/21 07:20:39;;;;;;;0.13;0.13;;;27.40;99.90;;;;;;5106928;28;20902;-73
2023/08/21 07:23:04;;;;;;;0.10;0.10;;;27.60;99.90;;;;;;5101252;28;20138;-73
2023/08/21 07:25:30;;;;;;;0.00;0.00;;;27.80;99.90;;;;;;5096956;28;20044;-73
2023/08/21 07:27:56;;;;;;;0.00;0.00;;;28.00;99.90;;;;;;5095861;28;20052;-73
2023/08/21 07:30:22;;;;;;;0.77;0.57;;;28.30;99.90;;;;;;5097493;28;20096;-73
2023/08/21 07:32:49;;;;;;;0.85;0.30;;;28.80;99.90;;;;;;5096195;28;20513;-73
2023/08/21 07:35:15;;;;;;;0.75;0.50;;;28.90;82.20;;;;;;5093975;28;20443;-73
2023/08/21 07:37:44;;;;;;;0.20;0.13;;;28.90;11.80;;;;;;5092901;28;20432;-73
2023/08/21 07:40:10;;;;;;;0.00;0.00;;;28.60;1.00;;;;;;5093472;28;20409;-73
2023/08/21 07:42:36;;;;;;;0.00;0.00;;;28.80;1.00;;;;;;5089026;28;20043;-73
2023/08/21 07:45:02;;;;;;;0.00;0.00;;;28.70;1.00;;;;;;5090188;28;20536;-73
2023/08/21 07:47:28;;;;;;;0.00;0.00;;;28.80;1.00;;;;;;5078650;28;20048;-73
2023/08/21 07:49:54;;;;;;;0.00;0.00;;;29.10;1.00;;;;;;5077701;28;20067;-73
2023/08/21 07:52:20;;;;;;;0.98;0.20;;;29.30;1.00;;;;;;5073676;28;20032;-73
2023/08/21 07:54:46;;;;;;;0.00;0.00;;;29.70;1.00;;;;;;5089867;27;20394;-73
2023/08/21 07:57:12;;;;;;;0.03;0.03;;;29.80;1.00;;;;;;5089844;28;20032;-73
2023/08/21 07:59:37;;;;;;;0.00;0.00;;;30.00;1.00;;;;;;5092655;28;20040;-73
2023/08/21 08:02:04;;;;;;;0.00;0.00;;;30.10;1.00;;;;;;5093593;28;20063;-73
2023/08/21 08:04:30;;;;;;;0.00;0.00;;;30.50;1.00;;;;;;5092802;28;20414;-73
2023/08/21 08:06:56;;;;;;;0.00;0.00;;;30.70;1.00;;;;;;5088813;28;20048;-73
2023/08/21 08:09:21;;;;;;;0.00;0.00;;;30.50;99.90;;;;;;5090474;28;20051;-73
2023/08/21 08:11:50;;;;;;;1.20;0.35;;;30.60;99.90;;;;;;5091985;28;20091;-73
2023/08/21 08:14:16;;;;;;;0.00;0.00;;;30.80;99.90;;;;;;5093229;28;20043;-73
2023/08/21 08:16:41;;;;;;;0.08;0.08;;;31.00;1.00;;;;;;5093205;28;20047;-73
2023/08/21 08:19:07;;;;;;;2.72;0.30;;;31.30;99.90;;;;;;5093156;28;20088;-73
2023/08/21 08:21:33;;;;;;;0.68;0.47;;;31.50;99.90;;;;;;5093000;28;20043;-73
2023/08/21 08:23:59;;;;;;;0.38;0.10;;;31.60;99.90;;;;;;5091183;28;20405;-73
2023/08/21 08:26:24;;;;;;;0.00;0.00;;;31.50;99.90;;;;;;5089681;28;20044;-74
2023/08/21 08:28:50;;;;;;;3.20;0.68;;;31.80;99.90;;;;;;5089711;28;20054;-73
2023/08/21 08:31:17;;;;;;;2.38;0.75;;;32.00;99.90;;;;;;5081073;28;20406;-73
2023/08/21 08:33:43;;;;;;;0.00;0.00;;;32.30;99.90;;;;;;5088856;28;20044;-73
2023/08/21 08:36:08;;;;;;;1.95;0.20;;;32.60;99.90;;;;;;5090085;28;20047;-73
2023/08/21 08:38:34;;;;;;;0.00;0.00;;;32.50;99.90;;;;;;5096596;28;20490;-73
2023/08/21 08:41:05;;;;;;;0.00;0.00;;;32.60;99.90;;;;;;5089600;28;20566;-73
2023/08/21 08:43:34;;;;;;;0.75;0.38;;;32.40;99.90;;;;;;5089695;28;20040;-73
2023/08/21 08:46:02;;;;;;;0.15;0.10;;;32.10;99.90;;;;;;5089932;28;20046;-73
2023/08/21 08:48:28;;;;;;;0.00;0.00;;;32.40;99.90;;;;;;5091928;28;20040;-73
2023/08/21 08:50:54;;;;;;;0.00;0.00;;;32.20;99.90;;;;;;5093004;28;20039;-73
2023/08/21 08:53:20;;;;;;;0.10;0.10;;;32.00;99.90;;;;;;5091644;28;20402;-73
2023/08/21 08:55:45;;;;;;;0.00;0.00;;;32.00;99.90;;;;;;5087779;28;20054;-73
2023/08/21 08:58:11;;;;;;;0.00;0.00;;;32.10;99.90;;;;;;5089446;28;20084;-73
2023/08/21 09:00:37;;;;;;;0.10;0.08;;;32.00;99.90;;;;;;5091979;28;20080;-73
2023/08/21 09:03:03;;;;;;;0.03;0.03;;;32.20;99.90;;;;;;5094664;28;20071;-73
2023/08/21 09:05:29;;;;;;;0.32;0.13;;;31.60;99.90;;;;;;5094385;28;20117;-73
2023/08/21 09:08:14;;;;;;;0.13;0.13;;;32.20;99.90;;;;;;5091576;28;20086;-73
2023/08/21 09:10:41;;;;;;;0.00;0.00;;;32.50;99.90;;;;;;5092293;28;20044;-73
2023/08/21 09:13:18;;;;;;;0.00;0.00;;;32.40;99.90;;;;;;5094411;28;20516;-73
2023/08/21 09:15:47;;;;;;;0.25;0.25;;;32.90;99.90;;;;;;5093327;28;20154;-74
2023/08/21 09:18:13;;;;;;;0.00;0.00;;;32.80;99.90;;;;;;5091533;28;20736;-74
2023/08/21 09:20:39;;;;;;;0.20;0.15;;;32.00;99.90;;;;;;5091259;28;20067;-73
2023/08/21 09:23:05;;;;;;;0.28;0.20;;;32.20;99.90;;;;;;5093559;28;20048;-74
2023/08/21 09:25:40;;;;;;;0.20;0.10;;;32.40;99.90;;;;;;5094216;28;20054;-73
2023/08/21 09:28:09;;;;;;;0.10;0.10;;;32.50;99.30;;;;;;5091420;28;20036;-73
2023/08/21 09:30:54;;;;;;;0.25;0.10;;;32.60;99.90;;;;;;5090999;28;20100;-74
2023/08/21 09:33:22;;;;;;;0.10;0.10;;;33.00;98.60;;;;;;5082689;28;20051;-74
2023/08/21 09:35:49;;;;;;;0.28;0.25;;;33.00;75.70;;;;;;5090775;28;20051;-74
2023/08/21 09:38:15;;;;;;;0.00;0.00;;;32.80;60.10;;;;;;5093194;28;20409;-74
2023/08/21 09:40:42;;;;;;;0.17;0.10;;;32.80;73.80;;;;;;5094260;28;20082;-74
2023/08/21 09:43:11;;;;;;;0.10;0.08;;;32.80;53.10;;;;;;5093446;28;20509;-74
2023/08/21 09:45:37;;;;;;;0.10;0.10;;;32.80;55.40;;;;;;5090580;28;20040;-74
2023/08/21 09:48:04;;;;;;;0.10;0.10;;;32.80;53.80;;;;;;5090598;28;20569;-73
2023/08/21 09:50:30;;;;;;;0.10;0.10;;;32.50;1.00;;;;;;5092979;28;20502;-73
2023/08/21 09:52:58;;;;;;;0.10;0.10;;;32.10;1.00;;;;;;5093794;28;20031;-73
2023/08/21 09:55:26;;;;;;;0.00;0.00;;;31.80;1.00;;;;;;5092923;28;20391;-73
2023/08/21 09:57:58;;;;;;;0.00;0.00;;;31.00;1.00;;;;;;5090702;28;20096;-73
2023/08/21 10:00:31;;;;;;;0.00;0.00;;;30.40;1.00;;;;;;5090762;28;20062;-74
2023/08/21 10:03:04;;;;;;;0.00;0.00;;;30.00;1.00;;;;;;5084175;28;20060;-73
2023/08/21 10:05:38;;;;;;;0.00;0.00;;;29.70;1.00;;;;;;5088472;28;20047;-73
2023/08/21 10:08:05;;;;;;;0.00;0.00;;;29.60;1.00;;;;;;5093763;28;20495;-73
2023/08/21 10:10:33;;;;;;;1.50;0.47;;;29.40;1.00;;;;;;5093320;28;20095;-73
2023/08/21 10:13:00;;;;;;;0.00;0.00;;;29.20;1.00;;;;;;5090575;28;20111;-74
2023/08/21 10:15:28;;;;;;;0.10;0.10;;;29.10;1.00;;;;;;5090110;28;20493;-74
2023/08/21 10:17:53;;;;;;;0.00;0.00;;;29.30;1.00;;;;;;5090706;28;20078;-74
2023/08/21 10:20:24;;;;;;;0.20;0.10;;;29.30;1.00;;;;;;5092791;28;20475;-74
2023/08/21 10:22:54;;;;;;;0.00;0.00;;;29.20;1.00;;;;;;5092331;28;20058;-73
2023/08/21 10:25:25;;;;;;;0.70;0.55;;;29.00;1.00;;;;;;5090449;28;20457;-73
2023/08/21 10:28:03;;;;;;;0.00;0.00;;;28.90;1.00;;;;;;5090597;28;20040;-73
2023/08/21 10:30:29;;;;;;;0.32;0.20;;;28.70;1.00;;;;;;5091911;28;20434;-73
2023/08/21 10:32:57;;;;;;;0.52;0.20;;;28.70;1.00;;;;;;5092910;28;20046;-73
2023/08/21 10:35:33;;;;;;;0.00;0.00;;;28.90;1.00;;;;;;5090011;28;20519;-73
2023/08/21 10:38:12;;;;;;;0.00;0.00;;;29.10;1.00;;;;;;5090335;28;20207;-73
2023/08/21 10:40:39;;;;;;;0.20;0.10;;;29.00;1.00;;;;;;5093671;28;20101;-73
2023/08/21 10:43:38;;;;;;;0.20;0.15;;;28.90;1.00;;;;;;5093513;28;20071;-73
2023/08/21 10:46:03;;;;;;;0.00;0.00;;;29.10;1.00;;;;;;5090293;28;20453;-73
2023/08/21 10:48:29;;;;;;;0.00;0.00;;;29.20;1.00;;;;;;5093329;28;20044;-74
2023/08/21 10:50:55;;;;;;;0.65;0.35;;;29.30;1.00;;;;;;5093091;28;20294;-73
2023/08/21 10:53:23;;;;;;;0.25;0.10;;;29.50;1.00;;;;;;5092030;28;20397;-74
2023/08/21 10:55:55;;;;;;;0.00;0.00;;;29.50;1.00;;;;;;5089951;28;20044;-74
2023/08/21 10:58:21;;;;;;;0.70;0.43;;;29.60;1.00;;;;;;5092943;28;20040;-74
2023/08/21 11:00:47;;;;;;;0.00;0.00;;;29.60;1.00;;;;;;5097094;28;20512;-74
2023/08/21 11:03:15;;;;;;;0.00;0.00;;;29.80;1.00;;;;;;5097170;28;20065;-73
2023/08/21 11:05:41;;;;;;;0.00;0.00;;;29.90;1.00;;;;;;5094884;28;20058;-74
2023/08/21 11:08:07;;;;;;;0.00;0.00;;;30.00;1.00;;;;;;5093494;28;20074;-74
2023/08/21 11:10:33;;;;;;;1.65;0.47;;;30.20;1.00;;;;;;5093699;28;20091;-74
2023/08/21 11:13:02;;;;;;;0.32;0.28;;;30.30;1.00;;;;;;5096890;28;20043;-74
2023/08/21 11:15:29;;;;;;;0.30;0.30;;;30.30;1.00;;;;;;5096623;28;20526;-74
2023/08/21 11:18:00;;;;;;;0.57;0.45;;;30.50;1.00;;;;;;5093755;28;20058;-73
2023/08/21 11:20:33;;;;;;;0.00;0.00;;;30.60;1.00;;;;;;5093516;28;20735;-74
2023/08/21 11:23:07;;;;;;;1.10;0.55;;;30.60;1.00;;;;;;5096009;28;20080;-74
2023/08/21 11:25:33;;;;;;;0.43;0.38;;;30.80;1.00;;;;;;5098563;28;20430;-74
2023/08/21 11:28:02;;;;;;;1.75;0.35;;;30.90;1.00;;;;;;5094856;28;20498;-74
2023/08/21 11:30:28;;;;;;;1.30;0.45;;;31.00;1.00;;;;;;5096421;28;20509;-74
2023/08/21 11:33:09;;;;;;;0.00;0.00;;;31.10;1.00;;;;;;5096027;28;20161;-74
2023/08/21 11:35:36;;;;;;;0.00;0.00;;;31.40;1.00;;;;;;5090560;28;20101;-74
2023/08/21 11:38:02;;;;;;;0.00;0.00;;;31.20;1.00;;;;;;5095542;28;20779;-74
2023/08/21 11:40:28;;;;;;;0.52;0.28;;;31.10;1.00;;;;;;5093618;28;20123;-74
2023/08/21 11:43:03;;;;;;;0.30;0.17;;;31.20;1.00;;;;;;5092995;28;20617;-74
2023/08/21 11:45:29;;;;;;;0.00;0.00;;;31.50;1.00;;;;;;5084621;28;20100;-74
2023/08/21 11:47:58;;;;;;;0.40;0.32;;;31.50;1.00;;;;;;5092687;28;20048;-73
2023/08/21 11:50:24;;;;;;;0.00;0.00;;;31.20;1.00;;;;;;5095154;28;20201;-74
2023/08/21 11:52:55;;;;;;;0.00;0.00;;;31.60;1.00;;;;;;5096059;28;20039;-74
2023/08/21 11:55:21;;;;;;;0.52;0.30;;;32.30;1.00;;;;;;5094847;28;20558;-74
2023/08/21 11:57:52;;;;;;;0.05;0.05;;;32.80;1.00;;;;;;5092652;28;20068;-74
2023/08/21 12:00:19;;;;;;;0.40;0.20;;;33.20;1.00;;;;;;5092216;28;20562;-74
2023/08/21 12:03:09;;;;;;;0.55;0.15;;;33.60;1.00;;;;;;5095733;28;20072;-74
2023/08/21 12:05:42;;;;;;;0.10;0.10;;;34.10;1.00;;;;;;5093711;28;20094;-74
2023/08/21 12:08:07;;;;;;;0.20;0.20;;;34.00;1.00;;;;;;5092267;28;20464;-75
2023/08/21 12:10:33;;;;;;;0.20;0.15;;;33.30;1.00;;;;;;5092820;28;20056;-74
2023/08/21 12:12:59;;;;;;;4.88;0.40;;;32.40;1.00;;;;;;5095720;28;20486;-74
2023/08/21 12:15:24;;;;;;;0.00;0.00;;;32.80;1.00;;;;;;5095663;28;20083;-74
2023/08/21 12:17:50;;;;;;;6.18;0.63;;;33.00;1.00;;;;;;5093555;28;20054;-75
2023/08/21 12:20:16;;;;;;;0.75;0.55;;;32.80;1.00;;;;;;5092402;28;20036;-75
2023/08/21 12:22:44;;;;;;;0.00;0.00;;;33.80;1.00;;;;;;5092081;28;20047;-75
2023/08/21 12:25:10;;;;;;;0.00;0.00;;;34.60;1.00;;;;;;5095360;28;20039;-74
2023/08/21 12:27:36;;;;;;;0.00;0.00;;;34.30;1.00;;;;;;5095519;28;20562;-74
2023/08/21 12:30:02;;;;;;;0.00;0.00;;;34.20;1.00;;;;;;5093588;28;20043;-74
2023/08/21 12:32:28;;;;;;;0.32;0.20;;;34.10;1.00;;;;;;5091945;28;20083;-75
2023/08/21 12:34:53;;;;;;;0.45;0.43;;;34.50;1.00;;;;;;5092123;28;20076;-74
2023/08/21 12:37:19;;;;;;;2.17;0.52;;;34.80;1.00;;;;;;5095434;28;20524;-74
2023/08/21 12:39:45;;;;;;;0.00;0.00;;;34.60;1.00;;;;;;5095036;28;20108;-74
2023/08/21 12:42:11;;;;;;;0.00;0.00;;;35.00;1.00;;;;;;5093576;28;20417;-74
2023/08/21 12:44:36;;;;;;;0.00;0.00;;;35.20;1.00;;;;;;5092200;28;20453;-74
2023/08/21 12:47:02;;;;;;;0.00;0.00;;;35.40;1.00;;;;;;5091944;28;20405;-74
2023/08/21 12:49:28;;;;;;;0.10;0.10;;;35.80;1.00;;;;;;5094555;28;20075;-74